sensor_id;sensor_type;location;lat;lon;timestamp;pressure;altitude;pressure_sealevel;temperature;humidity
81372;BME280;70827;52.206;5.294;2023-08-06T00:00:38;100353.47;;;20.17;62.00
81372;BME280;70827;52.206;5.294;2023-08-06T00:03:03;100358.75;;;20.17;62.01
81372;BME280;70827;52.206;5.294;2023-08-06T00:05:29;100363.91;;;20.19;62.19
81372;BME280;70827;52.206;5.294;2023-08-06T00:07:54;100355.34;;;20.15;62.50
81372;BME280;70827;52.206;5.294;2023-08-06T00:10:20;100350.16;;;20.13;62.18
81372;BME280;70827;52.206;5.294;2023-08-06T00:12:45;100346.78;;;20.11;62.18
81372;BME280;70827;52.206;5.294;2023-08-06T00:15:11;100343.69;;;20.05;62.44
81372;BME280;70827;52.206;5.294;2023-08-06T00:17:36;100343.50;;;20.08;62.61
81372;BME280;70827;52.206;5.294;2023-08-06T00:20:03;100353.00;;;20.10;62.69
81372;BME280;70827;52.206;5.294;2023-08-06T00:22:32;100351.50;;;20.06;62.55
81372;BME280;70827;52.206;5.294;2023-08-06T00:24:58;100352.25;;;20.08;62.67
81372;BME280;70827;52.206;5.294;2023-08-06T00:27:23;100349.91;;;20.04;62.47
81372;BME280;70827;52.206;5.294;2023-08-06T00:29:48;100348.03;;;20.06;62.20
81372;BME280;70827;52.206;5.294;2023-08-06T00:32:14;100354.22;;;20.05;62.42
81372;BME280;70827;52.206;5.294;2023-08-06T00:34:40;100351.59;;;20.05;62.42
81372;BME280;70827;52.206;5.294;2023-08-06T00:37:05;100347.38;;;20.02;62.65
81372;BME280;70827;52.206;5.294;2023-08-06T00:39:31;100326.22;;;19.90;62.34
81372;BME280;70827;52.206;5.294;2023-08-06T00:41:56;100353.56;;;20.01;62.70
81372;BME280;70827;52.206;5.294;2023-08-06T00:44:23;100346.63;;;20.00;62.27
81372;BME280;70827;52.206;5.294;2023-08-06T00:46:48;100347.63;;;19.98;62.96
81372;BME280;70827;52.206;5.294;2023-08-06T00:49:14;100345.09;;;19.96;62.40
81372;BME280;70827;52.206;5.294;2023-08-06T00:51:39;100346.88;;;19.96;62.57
81372;BME280;70827;52.206;5.294;2023-08-06T00:54:05;100344.16;;;19.97;62.45
81372;BME280;70827;52.206;5.294;2023-08-06T00:56:30;100348.56;;;19.97;62.89
81372;BME280;70827;52.206;5.294;2023-08-06T00:58:56;100342.47;;;19.96;62.42
81372;BME280;70827;52.206;5.294;2023-08-06T01:01:22;100350.25;;;19.98;62.64
81372;BME280;70827;52.206;5.294;2023-08-06T01:03:48;100341.72;;;19.94;62.49
81372;BME280;70827;52.206;5.294;2023-08-06T01:06:14;100350.25;;;19.98;62.87
81372;BME280;70827;52.206;5.294;2023-08-06T01:08:49;100345.84;;;19.98;62.28
81372;BME280;70827;52.206;5.294;2023-08-06T01:14:23;100343.59;;;19.92;62.84
81372;BME280;70827;52.206;5.294;2023-08-06T01:16:50;100332.22;;;19.92;62.61
81372;BME280;70827;52.206;5.294;2023-08-06T01:19:17;100337.47;;;19.92;62.67
81372;BME280;70827;52.206;5.294;2023-08-06T01:21:43;100330.53;;;19.91;62.84
81372;BME280;70827;52.206;5.294;2023-08-06T01:24:08;100342.84;;;19.90;62.79
81372;BME280;70827;52.206;5.294;2023-08-06T01:29:20;100338.34;;;19.92;62.76
81372;BME280;70827;52.206;5.294;2023-08-06T01:31:48;100344.81;;;19.87;63.15
81372;BME280;70827;52.206;5.294;2023-08-06T01:34:21;100335.88;;;19.89;63.08
81372;BME280;70827;52.206;5.294;2023-08-06T01:36:47;100337.97;;;19.84;62.90
81372;BME280;70827;52.206;5.294;2023-08-06T01:39:13;100338.81;;;19.85;63.05
81372;BME280;70827;52.206;5.294;2023-08-06T01:41:38;100333.91;;;19.78;63.00
81372;BME280;70827;52.206;5.294;2023-08-06T01:44:04;100340.69;;;19.82;62.99
81372;BME280;70827;52.206;5.294;2023-08-06T01:46:29;100345.09;;;19.82;62.92
81372;BME280;70827;52.206;5.294;2023-08-06T01:48:55;100346.84;;;19.81;63.17
81372;BME280;70827;52.206;5.294;2023-08-06T01:51:20;100345.09;;;19.82;63.28
81372;BME280;70827;52.206;5.294;2023-08-06T01:53:46;100348.66;;;19.81;62.84
81372;BME280;70827;52.206;5.294;2023-08-06T01:56:11;100347.78;;;19.80;63.32
81372;BME280;70827;52.206;5.294;2023-08-06T01:58:36;100346.19;;;19.78;62.84
81372;BME280;70827;52.206;5.294;2023-08-06T02:01:02;100347.72;;;19.82;62.88
81372;BME280;70827;52.206;5.294;2023-08-06T02:03:27;100340.00;;;19.79;63.26
81372;BME280;70827;52.206;5.294;2023-08-06T02:05:54;100350.53;;;19.79;63.05
81372;BME280;70827;52.206;5.294;2023-08-06T02:08:19;100319.03;;;19.63;62.88
81372;BME280;70827;52.206;5.294;2023-08-06T02:10:45;100352.22;;;19.80;63.39
81372;BME280;70827;52.206;5.294;2023-08-06T02:13:11;100349.78;;;19.77;63.46
81372;BME280;70827;52.206;5.294;2023-08-06T02:15:42;100349.78;;;19.77;62.90
81372;BME280;70827;52.206;5.294;2023-08-06T02:18:07;100350.91;;;19.73;63.25
81372;BME280;70827;52.206;5.294;2023-08-06T02:20:32;100357.75;;;19.75;63.52
81372;BME280;70827;52.206;5.294;2023-08-06T02:22:58;100351.66;;;19.75;63.22
81372;BME280;70827;52.206;5.294;2023-08-06T02:25:24;100350.06;;;19.72;63.06
81372;BME280;70827;52.206;5.294;2023-08-06T02:27:49;100344.69;;;19.74;63.01
81372;BME280;70827;52.206;5.294;2023-08-06T02:30:14;100333.63;;;19.69;63.22
81372;BME280;70827;52.206;5.294;2023-08-06T02:32:40;100320.16;;;19.59;63.43
81372;BME280;70827;52.206;5.294;2023-08-06T02:35:06;100354.47;;;19.72;63.45
81372;BME280;70827;52.206;5.294;2023-08-06T02:37:33;100349.03;;;19.75;63.17
81372;BME280;70827;52.206;5.294;2023-08-06T02:39:59;100339.72;;;19.69;63.04
81372;BME280;70827;52.206;5.294;2023-08-06T02:42:24;100344.13;;;19.69;63.63
81372;BME280;70827;52.206;5.294;2023-08-06T02:44:52;100343.84;;;19.73;63.25
81372;BME280;70827;52.206;5.294;2023-08-06T02:47:20;100344.03;;;19.70;63.11
81372;BME280;70827;52.206;5.294;2023-08-06T02:49:45;100344.03;;;19.70;63.21
81372;BME280;70827;52.206;5.294;2023-08-06T02:52:11;100343.19;;;19.70;63.17
81372;BME280;70827;52.206;5.294;2023-08-06T02:54:36;100338.97;;;19.67;62.92
81372;BME280;70827;52.206;5.294;2023-08-06T02:57:01;100340.66;;;19.68;63.70
81372;BME280;70827;52.206;5.294;2023-08-06T02:59:27;100335.66;;;19.64;63.44
81372;BME280;70827;52.206;5.294;2023-08-06T03:01:52;100338.03;;;19.68;63.52
81372;BME280;70827;52.206;5.294;2023-08-06T03:04:18;100339.13;;;19.64;63.55
81372;BME280;70827;52.206;5.294;2023-08-06T03:06:43;100333.88;;;19.64;63.66
81372;BME280;70827;52.206;5.294;2023-08-06T03:09:09;100328.53;;;19.66;63.31
81372;BME280;70827;52.206;5.294;2023-08-06T03:11:34;100326.06;;;19.63;63.37
81372;BME280;70827;52.206;5.294;2023-08-06T03:13:59;100327.00;;;19.62;63.53
81372;BME280;70827;52.206;5.294;2023-08-06T03:16:25;100333.22;;;19.61;63.14
81372;BME280;70827;52.206;5.294;2023-08-06T03:18:50;100332.19;;;19.63;63.74
81372;BME280;70827;52.206;5.294;2023-08-06T03:21:16;100329.44;;;19.65;63.77
81372;BME280;70827;52.206;5.294;2023-08-06T03:23:41;100327.75;;;19.64;63.17
81372;BME280;70827;52.206;5.294;2023-08-06T03:26:07;100332.28;;;19.62;63.59
81372;BME280;70827;52.206;5.294;2023-08-06T03:28:33;100329.72;;;19.60;63.62
81372;BME280;70827;52.206;5.294;2023-08-06T03:31:02;100333.03;;;19.64;63.58
81372;BME280;70827;52.206;5.294;2023-08-06T03:33:28;100326.25;;;19.60;63.81
81372;BME280;70827;52.206;5.294;2023-08-06T03:35:53;100332.38;;;19.60;63.51
81372;BME280;70827;52.206;5.294;2023-08-06T03:38:19;100322.97;;;19.56;63.41
81372;BME280;70827;52.206;5.294;2023-08-06T03:40:45;100329.06;;;19.57;63.47
81372;BME280;70827;52.206;5.294;2023-08-06T03:43:11;100325.69;;;19.55;63.34
81372;BME280;70827;52.206;5.294;2023-08-06T03:45:36;100322.03;;;19.57;63.76
81372;BME280;70827;52.206;5.294;2023-08-06T03:48:01;100330.88;;;19.56;63.57
81372;BME280;70827;52.206;5.294;2023-08-06T03:50:27;100320.59;;;19.51;63.97
81372;BME280;70827;52.206;5.294;2023-08-06T03:52:52;100335.28;;;19.56;63.54
81372;BME280;70827;52.206;5.294;2023-08-06T03:55:18;100338.00;;;19.54;63.87
81372;BME280;70827;52.206;5.294;2023-08-06T03:57:43;100331.09;;;19.51;63.94
81372;BME280;70827;52.206;5.294;2023-08-06T04:00:09;100321.88;;;19.44;63.88
81372;BME280;70827;52.206;5.294;2023-08-06T04:02:34;100332.91;;;19.51;63.76
81372;BME280;70827;52.206;5.294;2023-08-06T04:05:00;100327.72;;;19.49;63.92
81372;BME280;70827;52.206;5.294;2023-08-06T04:07:26;100335.69;;;19.48;63.96
81372;BME280;70827;52.206;5.294;2023-08-06T04:09:57;100316.63;;;19.44;63.97
81372;BME280;70827;52.206;5.294;2023-08-06T04:12:22;100334.69;;;19.50;64.21
81372;BME280;70827;52.206;5.294;2023-08-06T04:14:48;100325.16;;;19.48;63.41
81372;BME280;70827;52.206;5.294;2023-08-06T04:17:13;100336.56;;;19.48;64.10
81372;BME280;70827;52.206;5.294;2023-08-06T04:19:39;100342.81;;;19.46;64.35
81372;BME280;70827;52.206;5.294;2023-08-06T04:22:04;100342.66;;;19.49;64.23
81372;BME280;70827;52.206;5.294;2023-08-06T04:24:29;100337.47;;;19.47;63.89
81372;BME280;70827;52.206;5.294;2023-08-06T04:26:55;100339.25;;;19.47;64.40
81372;BME280;70827;52.206;5.294;2023-08-06T04:29:20;100345.44;;;19.46;63.85
81372;BME280;70827;52.206;5.294;2023-08-06T04:31:46;100347.06;;;19.48;64.07
81372;BME280;70827;52.206;5.294;2023-08-06T04:34:11;100349.75;;;19.47;64.24
81372;BME280;70827;52.206;5.294;2023-08-06T04:36:36;100348.16;;;19.44;64.07
81372;BME280;70827;52.206;5.294;2023-08-06T04:39:04;100353.22;;;19.47;63.99
81372;BME280;70827;52.206;5.294;2023-08-06T04:41:29;100359.53;;;19.45;63.94
81372;BME280;70827;52.206;5.294;2023-08-06T04:43:56;100362.06;;;19.46;64.03
81372;BME280;70827;52.206;5.294;2023-08-06T04:46:22;100367.50;;;19.43;64.08
81372;BME280;70827;52.206;5.294;2023-08-06T04:48:47;100358.94;;;19.40;64.00
81372;BME280;70827;52.206;5.294;2023-08-06T04:51:12;100354.63;;;19.39;64.09
81372;BME280;70827;52.206;5.294;2023-08-06T04:53:38;100366.75;;;19.41;64.20
81372;BME280;70827;52.206;5.294;2023-08-06T04:56:03;100365.91;;;19.41;64.04
81372;BME280;70827;52.206;5.294;2023-08-06T04:58:29;100365.81;;;19.42;64.05
81372;BME280;70827;52.206;5.294;2023-08-06T05:00:54;100370.22;;;19.42;64.02
81372;BME280;70827;52.206;5.294;2023-08-06T05:03:20;100364.13;;;19.41;63.93
81372;BME280;70827;52.206;5.294;2023-08-06T05:05:46;100357.25;;;19.39;63.92
81372;BME280;70827;52.206;5.294;2023-08-06T05:08:15;100364.78;;;19.45;64.11
81372;BME280;70827;52.206;5.294;2023-08-06T05:10:46;100359.81;;;19.40;63.80
81372;BME280;70827;52.206;5.294;2023-08-06T05:13:12;100368.44;;;19.42;64.05
81372;BME280;70827;52.206;5.294;2023-08-06T05:15:37;100371.06;;;19.42;64.08
81372;BME280;70827;52.206;5.294;2023-08-06T05:18:05;100368.25;;;19.45;63.97
81372;BME280;70827;52.206;5.294;2023-08-06T05:20:30;100377.06;;;19.44;64.29
81372;BME280;70827;52.206;5.294;2023-08-06T05:22:55;100388.44;;;19.45;63.93
81372;BME280;70827;52.206;5.294;2023-08-06T05:25:21;100383.28;;;19.43;63.95
81372;BME280;70827;52.206;5.294;2023-08-06T05:27:46;100388.44;;;19.45;63.82
81372;BME280;70827;52.206;5.294;2023-08-06T05:30:11;100395.28;;;19.47;64.22
81372;BME280;70827;52.206;5.294;2023-08-06T05:32:37;100392.84;;;19.44;63.84
81372;BME280;70827;52.206;5.294;2023-08-06T05:35:03;100394.53;;;19.45;64.17
81372;BME280;70827;52.206;5.294;2023-08-06T05:37:28;100395.56;;;19.43;64.01
81372;BME280;70827;52.206;5.294;2023-08-06T05:39:53;100404.13;;;19.46;64.00
81372;BME280;70827;52.206;5.294;2023-08-06T05:42:19;100401.41;;;19.48;64.72
81372;BME280;70827;52.206;5.294;2023-08-06T05:44:44;100410.22;;;19.47;63.98
81372;BME280;70827;52.206;5.294;2023-08-06T05:47:10;100404.38;;;19.42;64.08
81372;BME280;70827;52.206;5.294;2023-08-06T05:49:35;100406.94;;;19.43;63.82
81372;BME280;70827;52.206;5.294;2023-08-06T05:52:00;100404.31;;;19.43;63.72
81372;BME280;70827;52.206;5.294;2023-08-06T05:54:26;100411.44;;;19.41;64.65
81372;BME280;70827;52.206;5.294;2023-08-06T05:56:51;100418.09;;;19.47;64.00
81372;BME280;70827;52.206;5.294;2023-08-06T05:59:17;100397.81;;;19.35;64.04
81372;BME280;70827;52.206;5.294;2023-08-06T06:01:42;100431.34;;;19.45;64.19
81372;BME280;70827;52.206;5.294;2023-08-06T06:04:07;100429.56;;;19.46;64.22
81372;BME280;70827;52.206;5.294;2023-08-06T06:06:33;100419.13;;;19.44;65.09
81372;BME280;70827;52.206;5.294;2023-08-06T06:08:58;100439.84;;;19.50;64.66
81372;BME280;70827;52.206;5.294;2023-08-06T06:11:23;100436.38;;;19.50;65.21
81372;BME280;70827;52.206;5.294;2023-08-06T06:13:51;100438.66;;;19.56;66.42
81372;BME280;70827;52.206;5.294;2023-08-06T06:16:17;100435.44;;;19.51;67.17
81372;BME280;70827;52.206;5.294;2023-08-06T06:18:42;100431.84;;;19.52;66.79
81372;BME280;70827;52.206;5.294;2023-08-06T06:21:07;100438.75;;;19.55;66.24
81372;BME280;70827;52.206;5.294;2023-08-06T06:23:33;100435.34;;;19.52;65.91
81372;BME280;70827;52.206;5.294;2023-08-06T06:25:59;100443.22;;;19.52;65.60
81372;BME280;70827;52.206;5.294;2023-08-06T06:28:24;100442.47;;;19.50;65.43
81372;BME280;70827;52.206;5.294;2023-08-06T06:30:51;100439.00;;;19.50;65.16
81372;BME280;70827;52.206;5.294;2023-08-06T06:33:16;100449.31;;;19.53;65.09
81372;BME280;70827;52.206;5.294;2023-08-06T06:35:42;100458.16;;;19.52;65.19
81372;BME280;70827;52.206;5.294;2023-08-06T06:38:07;100465.94;;;19.53;65.18
81372;BME280;70827;52.206;5.294;2023-08-06T06:40:32;100461.63;;;19.52;64.85
81372;BME280;70827;52.206;5.294;2023-08-06T06:42:58;100465.19;;;19.51;64.49
81372;BME280;70827;52.206;5.294;2023-08-06T06:45:23;100456.47;;;19.51;64.97
81372;BME280;70827;52.206;5.294;2023-08-06T06:47:49;100467.31;;;19.29;66.34
81372;BME280;70827;52.206;5.294;2023-08-06T06:50:14;100464.47;;;19.18;66.79
81372;BME280;70827;52.206;5.294;2023-08-06T06:52:39;100455.53;;;19.05;67.14
81372;BME280;70827;52.206;5.294;2023-08-06T06:55:05;100462.22;;;18.94;67.76
81372;BME280;70827;52.206;5.294;2023-08-06T06:57:30;100467.63;;;18.76;68.30
81372;BME280;70827;52.206;5.294;2023-08-06T06:59:56;100468.72;;;18.72;68.03
81372;BME280;70827;52.206;5.294;2023-08-06T07:02:21;100474.84;;;18.88;67.94
81372;BME280;70827;52.206;5.294;2023-08-06T07:04:47;100472.56;;;19.13;67.03
81372;BME280;70827;52.206;5.294;2023-08-06T07:07:12;100472.94;;;19.23;66.18
81372;BME280;70827;52.206;5.294;2023-08-06T07:09:37;100472.56;;;19.13;66.48
81372;BME280;70827;52.206;5.294;2023-08-06T07:12:03;100474.03;;;19.03;66.61
81372;BME280;70827;52.206;5.294;2023-08-06T07:14:29;100473.91;;;18.89;67.87
81372;BME280;70827;52.206;5.294;2023-08-06T07:16:54;100468.84;;;18.86;67.48
81372;BME280;70827;52.206;5.294;2023-08-06T07:19:20;100477.66;;;18.85;67.23
81372;BME280;70827;52.206;5.294;2023-08-06T07:21:45;100478.97;;;18.76;67.22
81372;BME280;70827;52.206;5.294;2023-08-06T07:24:11;100470.84;;;18.65;67.27
81372;BME280;70827;52.206;5.294;2023-08-06T07:26:37;100477.13;;;18.94;66.84
81372;BME280;70827;52.206;5.294;2023-08-06T07:29:02;100478.50;;;18.85;66.73
81372;BME280;70827;52.206;5.294;2023-08-06T07:31:28;100489.25;;;18.97;67.09
81372;BME280;70827;52.206;5.294;2023-08-06T07:33:53;100483.03;;;19.15;66.33
81372;BME280;70827;52.206;5.294;2023-08-06T07:36:18;100487.56;;;19.11;65.83
81372;BME280;70827;52.206;5.294;2023-08-06T07:38:44;100475.97;;;18.84;66.58
81372;BME280;70827;52.206;5.294;2023-08-06T07:41:09;100483.56;;;18.73;67.25
81372;BME280;70827;52.206;5.294;2023-08-06T07:43:35;100495.66;;;18.75;67.02
81372;BME280;70827;52.206;5.294;2023-08-06T07:46:03;100492.44;;;18.70;67.45
81372;BME280;70827;52.206;5.294;2023-08-06T07:48:29;100500.97;;;18.41;68.13
81372;BME280;70827;52.206;5.294;2023-08-06T07:50:55;100489.38;;;18.45;68.09
81372;BME280;70827;52.206;5.294;2023-08-06T07:53:24;100501.97;;;18.38;67.89
81372;BME280;70827;52.206;5.294;2023-08-06T07:55:54;100497.16;;;18.46;67.68
81372;BME280;70827;52.206;5.294;2023-08-06T07:58:20;100491.91;;;18.46;66.99
81372;BME280;70827;52.206;5.294;2023-08-06T08:00:46;100496.47;;;18.43;68.00
81372;BME280;70827;52.206;5.294;2023-08-06T08:03:12;100503.75;;;18.38;67.43
81372;BME280;70827;52.206;5.294;2023-08-06T08:05:44;100503.41;;;18.44;67.55
81372;BME280;70827;52.206;5.294;2023-08-06T08:08:09;100509.31;;;18.49;67.12
81372;BME280;70827;52.206;5.294;2023-08-06T08:10:35;100505.97;;;18.45;67.69
81372;BME280;70827;52.206;5.294;2023-08-06T08:13:02;100514.00;;;18.42;67.73
81372;BME280;70827;52.206;5.294;2023-08-06T08:15:30;100504.44;;;18.41;67.12
81372;BME280;70827;52.206;5.294;2023-08-06T08:17:56;100517.25;;;18.30;67.38
81372;BME280;70827;52.206;5.294;2023-08-06T08:20:22;100509.31;;;17.42;70.07
81372;BME280;70827;52.206;5.294;2023-08-06T08:22:50;100511.97;;;17.78;70.72
81372;BME280;70827;52.206;5.294;2023-08-06T08:25:15;100508.16;;;17.85;69.66
81372;BME280;70827;52.206;5.294;2023-08-06T08:27:41;100517.72;;;17.86;69.22
81372;BME280;70827;52.206;5.294;2023-08-06T08:30:07;100507.91;;;18.07;69.03
81372;BME280;70827;52.206;5.294;2023-08-06T08:32:32;100507.47;;;18.16;68.75
81372;BME280;70827;52.206;5.294;2023-08-06T08:34:57;100514.34;;;18.19;68.39
81372;BME280;70827;52.206;5.294;2023-08-06T08:37:23;100515.53;;;18.29;68.43
81372;BME280;70827;52.206;5.294;2023-08-06T08:39:49;100510.63;;;18.23;68.67
81372;BME280;70827;52.206;5.294;2023-08-06T08:42:15;100513.00;;;18.27;68.84
81372;BME280;70827;52.206;5.294;2023-08-06T08:44:42;100523.50;;;18.27;69.09
81372;BME280;70827;52.206;5.294;2023-08-06T08:47:08;100509.00;;;18.38;67.95
81372;BME280;70827;52.206;5.294;2023-08-06T08:49:34;100523.88;;;18.37;68.14
81372;BME280;70827;52.206;5.294;2023-08-06T08:52:00;100524.56;;;18.41;68.72
81372;BME280;70827;52.206;5.294;2023-08-06T08:54:27;100525.41;;;18.58;68.63
81372;BME280;70827;52.206;5.294;2023-08-06T08:56:53;100530.34;;;18.30;68.33
81372;BME280;70827;52.206;5.294;2023-08-06T08:59:20;100533.91;;;18.12;68.53
81372;BME280;70827;52.206;5.294;2023-08-06T09:01:45;100538.16;;;18.49;68.26
81372;BME280;70827;52.206;5.294;2023-08-06T09:04:15;100548.25;;;18.56;69.44
81372;BME280;70827;52.206;5.294;2023-08-06T09:06:41;100553.81;;;18.85;67.80
81372;BME280;70827;52.206;5.294;2023-08-06T09:09:12;100549.66;;;18.97;67.03
81372;BME280;70827;52.206;5.294;2023-08-06T09:11:43;100563.00;;;19.09;66.40
81372;BME280;70827;52.206;5.294;2023-08-06T09:14:08;100562.94;;;19.11;66.39
81372;BME280;70827;52.206;5.294;2023-08-06T09:16:35;100569.56;;;19.18;66.63
81372;BME280;70827;52.206;5.294;2023-08-06T09:19:09;100571.50;;;19.30;66.85
81372;BME280;70827;52.206;5.294;2023-08-06T09:21:39;100565.25;;;19.33;67.15
81372;BME280;70827;52.206;5.294;2023-08-06T09:24:09;100569.25;;;19.40;66.83
81372;BME280;70827;52.206;5.294;2023-08-06T09:26:36;100573.56;;;19.41;67.11
81372;BME280;70827;52.206;5.294;2023-08-06T09:29:07;100570.66;;;19.45;67.19
81372;BME280;70827;52.206;5.294;2023-08-06T09:31:40;100593.25;;;19.49;66.86
81372;BME280;70827;52.206;5.294;2023-08-06T09:34:10;100592.31;;;19.50;66.81
81372;BME280;70827;52.206;5.294;2023-08-06T09:36:40;100582.56;;;19.52;66.99
81372;BME280;70827;52.206;5.294;2023-08-06T09:39:13;100592.94;;;19.56;66.68
81372;BME280;70827;52.206;5.294;2023-08-06T09:41:39;100596.50;;;19.55;66.60
81372;BME280;70827;52.206;5.294;2023-08-06T09:44:05;100591.06;;;19.58;66.67
81372;BME280;70827;52.206;5.294;2023-08-06T09:46:32;100598.78;;;19.61;66.88
81372;BME280;70827;52.206;5.294;2023-08-06T09:48:57;100595.22;;;19.62;66.28
81372;BME280;70827;52.206;5.294;2023-08-06T09:51:22;100591.84;;;19.60;65.97
81372;BME280;70827;52.206;5.294;2023-08-06T09:53:48;100594.38;;;19.61;65.91
81372;BME280;70827;52.206;5.294;2023-08-06T09:56:14;100592.84;;;19.57;65.57
81372;BME280;70827;52.206;5.294;2023-08-06T09:58:41;100598.03;;;19.59;65.66
81372;BME280;70827;52.206;5.294;2023-08-06T10:01:07;100595.31;;;19.60;65.18
81372;BME280;70827;52.206;5.294;2023-08-06T10:03:33;100603.47;;;19.56;65.32
81372;BME280;70827;52.206;5.294;2023-08-06T10:05:59;100605.06;;;19.58;64.97
81372;BME280;70827;52.206;5.294;2023-08-06T10:08:27;100594.63;;;19.57;65.14
81372;BME280;70827;52.206;5.294;2023-08-06T10:10:52;100592.94;;;19.56;64.83
81372;BME280;70827;52.206;5.294;2023-08-06T10:13:18;100597.34;;;19.55;64.93
81372;BME280;70827;52.206;5.294;2023-08-06T10:15:45;100596.50;;;19.55;64.66
81372;BME280;70827;52.206;5.294;2023-08-06T10:18:11;100609.47;;;19.58;64.52
81372;BME280;70827;52.206;5.294;2023-08-06T10:20:37;100612.97;;;19.58;64.45
81372;BME280;70827;52.206;5.294;2023-08-06T10:23:04;100609.66;;;19.55;64.46
81372;BME280;70827;52.206;5.294;2023-08-06T10:25:33;100621.59;;;19.60;64.42
81372;BME280;70827;52.206;5.294;2023-08-06T10:27:59;100606.75;;;19.59;64.64
81372;BME280;70827;52.206;5.294;2023-08-06T10:30:26;100603.28;;;19.59;64.42
81372;BME280;70827;52.206;5.294;2023-08-06T10:32:54;100611.19;;;19.59;64.37
81372;BME280;70827;52.206;5.294;2023-08-06T10:35:36;100624.22;;;19.60;64.41
81372;BME280;70827;52.206;5.294;2023-08-06T10:38:07;100626.09;;;19.58;64.22
81372;BME280;70827;52.206;5.294;2023-08-06T10:40:33;100625.34;;;19.56;64.23
81372;BME280;70827;52.206;5.294;2023-08-06T10:42:59;100613.81;;;19.59;64.30
81372;BME280;70827;52.206;5.294;2023-08-06T10:45:25;100614.75;;;19.58;64.27
81372;BME280;70827;52.206;5.294;2023-08-06T10:47:54;100620.09;;;19.56;64.01
81372;BME280;70827;52.206;5.294;2023-08-06T10:50:20;100614.75;;;19.58;64.00
81372;BME280;70827;52.206;5.294;2023-08-06T10:52:46;100621.69;;;19.59;64.12
81372;BME280;70827;52.206;5.294;2023-08-06T10:55:12;100634.75;;;19.60;64.23
81372;BME280;70827;52.206;5.294;2023-08-06T10:57:38;100632.22;;;19.59;63.85
81372;BME280;70827;52.206;5.294;2023-08-06T11:00:07;100636.63;;;19.58;63.93
81372;BME280;70827;52.206;5.294;2023-08-06T11:02:36;100638.41;;;19.58;63.99
81372;BME280;70827;52.206;5.294;2023-08-06T11:05:08;100632.97;;;19.61;64.01
81372;BME280;70827;52.206;5.294;2023-08-06T11:07:35;100637.56;;;19.57;63.77
81372;BME280;70827;52.206;5.294;2023-08-06T11:10:05;100633.16;;;19.58;63.85
81372;BME280;70827;52.206;5.294;2023-08-06T11:12:34;100639.16;;;19.60;63.61
81372;BME280;70827;52.206;5.294;2023-08-06T11:15:00;100637.56;;;19.57;63.54
81372;BME280;70827;52.206;5.294;2023-08-06T11:17:28;100641.03;;;19.58;63.84
81372;BME280;70827;52.206;5.294;2023-08-06T11:19:54;100642.91;;;19.56;63.79
81372;BME280;70827;52.206;5.294;2023-08-06T11:22:20;100641.22;;;19.55;63.76
81372;BME280;70827;52.206;5.294;2023-08-06T11:24:46;100654.25;;;19.56;63.54
81372;BME280;70827;52.206;5.294;2023-08-06T11:27:13;100659.53;;;19.56;63.81
81372;BME280;70827;52.206;5.294;2023-08-06T11:29:38;100653.41;;;19.56;63.69
81372;BME280;70827;52.206;5.294;2023-08-06T11:32:05;100661.31;;;19.56;63.79
81372;BME280;70827;52.206;5.294;2023-08-06T11:34:30;100672.59;;;19.58;63.44
81372;BME280;70827;52.206;5.294;2023-08-06T11:36:56;100670.19;;;19.53;63.84
81372;BME280;70827;52.206;5.294;2023-08-06T11:39:22;100673.53;;;19.57;63.46
81372;BME280;70827;52.206;5.294;2023-08-06T11:41:47;100680.47;;;19.58;63.45
81372;BME280;70827;52.206;5.294;2023-08-06T11:44:13;100683.09;;;19.58;63.43
81372;BME280;70827;52.206;5.294;2023-08-06T11:46:52;100672.50;;;19.59;63.16
81372;BME280;70827;52.206;5.294;2023-08-06T11:49:18;100683.19;;;19.56;63.36
81372;BME280;70827;52.206;5.294;2023-08-06T11:51:47;100681.31;;;19.58;63.64
81372;BME280;70827;52.206;5.294;2023-08-06T11:54:13;100674.28;;;19.59;63.30
81372;BME280;70827;52.206;5.294;2023-08-06T11:56:38;100681.31;;;19.58;63.55
81372;BME280;70827;52.206;5.294;2023-08-06T11:59:03;100673.59;;;19.55;63.32
81372;BME280;70827;52.206;5.294;2023-08-06T12:01:29;100677.75;;;19.59;63.51
81372;BME280;70827;52.206;5.294;2023-08-06T12:04:00;100675.03;;;19.61;63.19
81372;BME280;70827;52.206;5.294;2023-08-06T12:06:29;100675.03;;;19.61;63.50
81372;BME280;70827;52.206;5.294;2023-08-06T12:08:54;100678.59;;;19.60;63.59
81372;BME280;70827;52.206;5.294;2023-08-06T12:11:23;100671.75;;;19.57;63.17
81372;BME280;70827;52.206;5.294;2023-08-06T12:13:51;100676.81;;;19.60;63.03
81372;BME280;70827;52.206;5.294;2023-08-06T12:16:17;100677.75;;;19.59;63.29
81372;BME280;70827;52.206;5.294;2023-08-06T12:18:44;100677.75;;;19.59;62.97
81372;BME280;70827;52.206;5.294;2023-08-06T12:21:10;100676.22;;;19.55;63.32
81372;BME280;70827;52.206;5.294;2023-08-06T12:23:35;100682.09;;;19.60;63.07
81372;BME280;70827;52.206;5.294;2023-08-06T12:26:01;100685.56;;;19.61;63.23
81372;BME280;70827;52.206;5.294;2023-08-06T12:28:26;100690.81;;;19.61;63.17
81372;BME280;70827;52.206;5.294;2023-08-06T12:30:52;100692.59;;;19.60;63.35
81372;BME280;70827;52.206;5.294;2023-08-06T12:33:20;100689.88;;;19.62;62.90
81372;BME280;70827;52.206;5.294;2023-08-06T12:35:45;100694.31;;;19.61;63.22
81372;BME280;70827;52.206;5.294;2023-08-06T12:38:11;100693.44;;;19.61;63.15
81372;BME280;70827;52.206;5.294;2023-08-06T12:40:36;100703.97;;;19.61;63.17
81372;BME280;70827;52.206;5.294;2023-08-06T12:43:02;100705.75;;;19.60;63.17
81372;BME280;70827;52.206;5.294;2023-08-06T12:45:27;100703.13;;;19.60;63.01
81372;BME280;70827;52.206;5.294;2023-08-06T12:47:52;100710.84;;;19.63;62.77
81372;BME280;70827;52.206;5.294;2023-08-06T12:50:18;100714.41;;;19.62;63.02